Tiempo atmosférico en la estación meteorológica de Puntagorda, Santa Cruz de Tenerife (684 m.)



Fecha
DESCASC
Temp. máxima en grados centígrados (hora)
DESCASC
Temp. mínima en grados centígrados (hora)
DESCASC
Temp. media en grados centígrados
DESCASC
Racha de viento máxima en m/sg (hora)
DESCASC
Velocidad máxima media en intervalos de 10 minutos(hora)
DESCASC
Precipitaciones diarias en mm
DESCASC
Precipitaciones de 00:00 a 06:00 en mm
DESCASC
Precipitaciones de 06:00 a 12:00 en mm
DESCASC
Precipitaciones de 12:00 a 18:00 en mm
DESCASC
Precipitaciones de 18:00 a 24:00 en mm
DESCASC
11-12-2019 19.4 (15:40) 11.6 (08:30) 15.5 7.78 (15:40) 5 (15:40) 0 0 0 0 0
08-12-2019 18.4 (15:50) 10.9 (00:00) 14.6 8.06 (14:00) 4.17 (14:00) 0 0 0 0 0
07-12-2019 18.5 (15:50) 12.7 (00:00) 15.6 12.22 (09:10) 6.39 (09:10) 0 0 0 0 0
06-12-2019 16.7 (14:20) 11.8 (00:00) 14.3 17.78 (05:20) 10 (01:10) 3.4 2 1.2 0.2 0
05-12-2019 14.7 (15:50) 11.1 (00:00) 12.9 20.56 (05:30) 11.39 (04:40) 15.2 1 2.4 5 6.8
04-12-2019 16.9 (13:40) 12 (00:10) 14.4 16.39 (23:40) 9.72 (23:50) 11.8 0 0 0 11.8
03-12-2019 17 (13:40) 12 (00:00) 14.5 13.33 (01:30) 7.78 (14:10) 0.2 0.2 0 0 0
02-12-2019 17.8 (14:00) 12 (00:00) 14.9 15 (13:30) 8.89 (14:20) 2.2 0 0 0 2.2
01-12-2019 24.4 (14:00) 13.4 (00:00) 18.9 4.17 (02:40) 2.5 (05:20) 0 0 0 0 0
30-11-2019 26.8 (15:10) 19.3 (00:00) 23 4.17 (01:20) 3.61 (01:20) 0 0 0 0 0
29-11-2019 24.7 (13:20) 15.8 (00:00) 20.3 4.44 (19:40) 2.78 (01:10) 0 0 0 0 0
28-11-2019 17.9 (16:40) 11.7 (07:00) 14.8 5 (10:00) 3.33 (10:00) 0.2 0.2 0 0 0
27-11-2019 17.3 (12:40) 11.8 (00:00) 14.5 4.72 (13:10) 2.78 (21:00) 0 0 0 0 0
26-11-2019 19 (13:50) 11.6 (00:00) 15.3 5.56 (14:30) 3.06 (10:50) 0 0 0 0 0
25-11-2019 16.8 (17:50) 12.4 (07:10) 14.6 4.44 (11:50) 2.78 (14:20) 0.2 0.2 0 0 0
24-11-2019 19.3 (13:20) 12.5 (00:00) 15.9 7.78 (03:30) 4.44 (03:30) 0 0 0 0 0
23-11-2019 19.6 (16:00) 14.3 (00:00) 17 9.17 (02:40) 5.28 (01:30) 0.2 0.2 0 0 0
22-11-2019 19.2 (13:40) 13 (00:00) 16.1 10.83 (06:50) 6.39 (04:30) 0.6 0.2 0 0 0.4
21-11-2019 16.8 (13:00) 11.9 (00:00) 14.3 8.61 (22:30) 5.28 (22:30) 5.8 0 0 2 3.8
20-11-2019 17.1 (16:00) 12.2 (04:40) 14.7 8.06 (15:20) 5 (15:20) 3.6 0 2.4 1.2 0
19-11-2019 17.4 (14:20) 11.7 (00:00) 14.5 8.89 (15:50) 5.83 (16:30) 0 0 0 0 0
18-11-2019 18.4 (16:30) 10.8 (00:00) 14.6 5.83 (22:50) 3.06 (23:30) 0 0 0 0 0
17-11-2019 19 (15:20) 11.1 (00:00) 15.1 5.83 (16:20) 3.61 (17:00) 0 0 0 0 0
16-11-2019 19.3 (13:20) 12.3 (00:00) 15.8 15.56 (10:40) 6.39 (07:20) 0 0 0 0 0
15-11-2019 19.6 (13:20) 12.9 (00:00) 16.3 15.83 (15:30) 8.89 (15:30) 0 0 0 0 0

Gráficas

Temp. máximas Temp. mínimas Temp. medias Precipitaciones Rachas de viento máximas Velocidades máximas media en intervalos de 10 minutos

Datos horarios

Fecha y hora oficial Temperatura (ºC) Velocidad del viento (km/h) Dirección del viento Racha (km/h) Dirección de racha Precipitación (mm) Presión (hPa) Tendencia (hPa) Humedad (%)
2019-12-14 23:00:00 12.7 0 Calma 4 Nordeste 0 -- -- 92
2019-12-14 22:00:00 11.7 2 Sudeste 8 Nordeste 0 -- -- 87
2019-12-14 21:00:00 12.2 3 Sudeste 9 Sudeste 0 -- -- 88
2019-12-14 20:00:00 13.2 8 Sur 15 Sudoeste 0 -- -- 93
2019-12-14 19:00:00 13.4 0 Calma 8 Noroeste 0 -- -- 92
2019-12-14 18:00:00 13.2 3 Sur 8 Sur 0 -- -- 90
2019-12-14 17:00:00 13.3 4 Sur 9 Oeste 0 -- -- 91
2019-12-14 16:00:00 14.5 4 Sudoeste 13 Sudoeste 0 -- -- 83
2019-12-14 15:00:00 15.7 8 Sudoeste 20 Sudoeste 0 -- -- 73
2019-12-14 14:00:00 16.7 10 Sudoeste 18 Sudoeste 0 -- -- 71
2019-12-14 13:00:00 15.4 8 Sudoeste 16 Sudoeste 0 -- -- 77
2019-12-14 12:00:00 15.4 5 Sudoeste 15 Sur 0 -- -- 74
2019-12-14 11:00:00 14.9 6 Oeste 14 Sur 0 -- -- 74
2019-12-14 10:00:00 13.6 6 Sur 10 Sur 0 -- -- 75
2019-12-14 09:00:00 10.8 5 Sudeste 10 Sudeste 0 -- -- 89
2019-12-14 08:00:00 10.2 4 Sudeste 8 Este 0 -- -- 86
2019-12-14 07:00:00 10 6 Sudeste 12 Sudeste 0 -- -- 85
2019-12-14 06:00:00 11.2 8 Sudeste 12 Sudeste 0 -- -- 83
2019-12-14 05:00:00 10.5 8 Sudeste 14 Sudeste 0 -- -- 85
2019-12-14 04:00:00 10.2 8 Sudeste 14 Sudeste 0 -- -- 84
2019-12-14 03:00:00 10.5 8 Sudeste 13 Sudeste 0 -- -- 83
2019-12-14 02:00:00 11.2 7 Sudeste 12 Sudeste 0 -- -- 83
2019-12-14 01:00:00 10.2 8 Sudeste 12 Sudeste 0 -- -- 85
2019-12-14 00:00:00 11 8 Sudeste 13 Sudeste 0 -- -- 82
2019-12-13 23:00:00 11.7 8 Este 13 Este 0 -- -- 83
2019-12-13 22:00:00 10.8 4 Este 9 Sudeste 0 -- -- 86
2019-12-13 21:00:00 12 4 Sudeste 6 Sudeste 0 -- -- 84
2019-12-13 20:00:00 12.8 5 Sur 8 Sudoeste 0 -- -- 84
2019-12-13 19:00:00 13.4 3 Sudoeste 9 Sur 0 -- -- 83
2019-12-13 18:00:00 13.9 3 Sur 11 Sudoeste 0 -- -- 81
2019-12-13 17:00:00 14.5 6 Sur 15 Sur 0 -- -- 77
2019-12-13 16:00:00 14.8 6 Sudoeste 17 Sudoeste 0 -- -- 77
2019-12-13 15:00:00 15.2 8 Sudoeste 20 Sur 0 -- -- 74
2019-12-13 14:00:00 15.8 12 Sur 22 Sudoeste 0 -- -- 72
2019-12-13 13:00:00 15.3 12 Sur 26 Sur 0 -- -- 74
2019-12-13 12:00:00 16 15 Sudoeste 29 Sur 0 -- -- 69
2019-12-13 11:00:00 14.4 10 Sur 18 Sur 0 -- -- 69
2019-12-13 10:00:00 13.1 3 Sudoeste 8 Este 0 -- -- 74
2019-12-13 09:00:00 11 6 Nordeste 9 Norte 0 -- -- 80
2019-12-13 08:00:00 10.1 4 Sudeste 7 Este 0 -- -- 83
2019-12-13 07:00:00 10.6 0 Calma 4 Este 0 -- -- 83
2019-12-13 06:00:00 10.6 2 Nordeste 4 Nordeste 0 -- -- 84
2019-12-13 05:00:00 10.8 0 Calma 12 Sudeste 0 -- -- 85
2019-12-13 04:00:00 10.6 6 Sudeste 11 Sudeste 0 -- -- 83
2019-12-13 03:00:00 10.5 7 Sudeste 12 Sudeste 0 -- -- 82
2019-12-13 02:00:00 11.1 7 Sudeste 14 Sudeste 0 -- -- 80
2019-12-13 01:00:00 11.1 9 Sudeste 13 Sudeste 0 -- -- 84
2019-12-13 00:00:00 11.3 4 Este 9 Sudeste 0 -- -- 85
2019-12-12 23:00:00 11.7 3 Sudeste 10 Sudeste 0 -- -- 84
2019-12-12 22:00:00 12.2 8 Sudeste 12 Sudeste 0 -- -- 84
2019-12-12 21:00:00 12.9 3 Sudeste 9 Sudeste 0 -- -- 85
2019-12-12 20:00:00 13.8 4 Sur 13 Sur 0 -- -- 84
2019-12-12 19:00:00 14.8 5 Sur 10 Sudoeste 0 -- -- 82
2019-12-12 18:00:00 17.2 6 Sudoeste 13 Sudoeste 0 -- -- 72
2019-12-12 17:00:00 18.7 5 Sudoeste 16 Sur 0 -- -- 67
2019-12-12 16:00:00 19.7 5 Sudoeste 20 Sudoeste 0 -- -- 58
2019-12-12 15:00:00 18.7 8 Sudoeste 21 Sudoeste 0 -- -- 65
2019-12-12 14:00:00 18.1 7 Noroeste 15 Oeste 0 -- -- 65
2019-12-12 13:00:00 18.1 7 Oeste 14 Sur 0 -- -- 59
2019-12-12 12:00:00 17.7 8 Sudoeste 12 Sudoeste 0 -- -- 62
2019-12-12 11:00:00 15.8 5 Oeste 10 Sur 0 -- -- 69
2019-12-12 10:00:00 15.5 6 Norte 10 Sur 0 -- -- 70
2019-12-12 09:00:00 14.6 6 Sur 13 Sudeste 0 -- -- 64
2019-12-12 08:00:00 13.1 5 Sur 13 Norte 0 -- -- 49
2019-12-12 07:00:00 13.7 5 Este 12 Nordeste 0 -- -- 35
2019-12-12 06:00:00 13.4 0 Calma 10 Sudeste 0 -- -- 45
2019-12-12 05:00:00 13.4 2 Sur 6 Sudeste 0 -- -- 46
2019-12-12 04:00:00 13.1 0 Calma 6 Este 0 -- -- 40
2019-12-12 03:00:00 12.8 5 Sudeste 9 Este 0 -- -- 48
2019-12-12 02:00:00 12.8 0 Calma 9 Nordeste 0 -- -- 57
2019-12-12 01:00:00 13.1 3 Nordeste 12 Nordeste 0 -- -- 53
2019-12-12 00:00:00 12.5 2 Este 6 Sudeste 0 -- -- 67
2019-12-11 23:00:00 13.1 4 Nordeste 9 Sudeste 0 -- -- 61
2019-12-11 22:00:00 13.1 0 Calma 12 Este 0 -- -- 68
2019-12-11 21:00:00 12.6 0 Calma 6 Este 0 -- -- 86
2019-12-11 20:00:00 13.2 3 Nordeste 12 Sudeste 0 -- -- 84
2019-12-11 19:00:00 14.2 4 Sur 12 Sudoeste 0 -- -- 81
2019-12-11 18:00:00 16.2 6 Sudoeste 19 Sudoeste 0 -- -- 81
2019-12-11 17:00:00 17.5 14 Sur 24 Sudoeste 0 -- -- 72
2019-12-11 16:00:00 18.9 15 Sudoeste 28 Sur 0 -- -- 56
2019-12-11 15:00:00 18.3 7 Sudoeste 19 Sur 0 -- -- 69
2019-12-11 14:00:00 16.4 9 Sudoeste 14 Sudoeste 0 -- -- 79
2019-12-11 13:00:00 16.3 8 Sudoeste 20 Sudoeste 0 -- -- 79
2019-12-11 12:00:00 16.5 11 Sudoeste 23 Sudoeste 0 -- -- 78
2019-12-11 11:00:00 15.6 5 Sur 16 Sur 0 -- -- 83
2019-12-11 10:00:00 14.8 13 Sur 17 Sur 0 -- -- 85
2019-12-11 09:00:00 12.6 6 Nordeste 12 Este 0 -- -- 90
2019-12-11 08:00:00 12 7 Sur 12 Sur 0 -- -- 87
2019-12-11 07:00:00 12 0 Calma 6 Sudeste 0 -- -- 86
2019-12-11 06:00:00 12.2 0 Calma 8 Nordeste 0 -- -- 90
2019-12-11 05:00:00 12.1 4 Nordeste 10 Sudeste 0 -- -- 83
2019-12-11 04:00:00 12.6 5 Sur 8 Sur 0 -- -- 81
2019-12-11 03:00:00 12.9 3 Sur 12 Este 0 -- -- 75
2019-12-11 02:00:00 12.6 9 Nordeste 15 Nordeste 0 -- -- 78
2019-12-11 01:00:00 12 3 Sudeste 8 Sudeste 0 -- -- 82
2019-12-11 00:00:00 12.5 3 Sudeste 5 Este 0 -- -- 78
2019-12-10 23:00:00 12.6 0 Calma 6 Nordeste 0 -- -- 84
2019-12-10 22:00:00 12.8 0 Calma 8 Norte 0 -- -- 79
2019-12-10 21:00:00 13.2 4 Nordeste 9 Nordeste 0 -- -- 79
2019-12-10 20:00:00 13.1 3 Sudeste 5 Sur 0 -- -- 80
2019-12-10 19:00:00 14.2 2 Este 8 Sur 0 -- -- 76
2019-12-10 18:00:00 16.8 3 Oeste 10 Oeste 0 -- -- 66
2019-12-10 17:00:00 17.9 4 Sudoeste 14 Sur 0 -- -- 64
2019-12-10 16:00:00 18.8 8 Sudoeste 14 Sur 0 -- -- 56
2019-12-10 15:00:00 18.5 7 Sudoeste 17 Sur 0 -- -- 51
2019-12-10 14:00:00 17.8 7 Sudoeste 13 Sudoeste 0 -- -- 60
2019-12-10 13:00:00 17 6 Sudoeste 14 Sudoeste 0 -- -- 62
2019-12-10 12:00:00 16.7 6 Sudoeste 13 Sudoeste 0 -- -- 67
2019-12-10 11:00:00 15.2 5 Oeste 12 Sudoeste 0 -- -- 64
2019-12-10 10:00:00 14.7 3 Sur 6 Sur 0 -- -- 59
2019-12-10 09:00:00 12.2 0 Calma 6 Nordeste 0 -- -- 68
2019-12-10 08:00:00 11.1 2 Este 6 Sudeste 0 -- -- 73
2019-12-10 07:00:00 10.8 4 Sudeste 9 Sudeste 0 -- -- 67
2019-12-10 06:00:00 11 3 Este 13 Este 0 -- -- 65
2019-12-10 05:00:00 11 2 Nordeste 9 Sudeste 0 -- -- 76
2019-12-10 04:00:00 10.7 5 Sudeste 9 Sudeste 0 -- -- 70
2019-12-10 03:00:00 11.3 3 Sudeste 7 Sudeste 0 -- -- 65
2019-12-10 02:00:00 11.8 0 Calma 8 Sudeste 0 -- -- 63
2019-12-10 01:00:00 11.3 5 Sudeste 10 Este 0 -- -- 61
2019-12-10 00:00:00 11.5 3 Sudeste 9 Sudeste 0 -- -- 66
2019-12-09 23:00:00 11.4 5 Sudeste 10 Sudeste 0 -- -- 73
2019-12-09 22:00:00 11.7 5 Sudeste 8 Sudeste 0 -- -- 76
2019-12-09 21:00:00 12.2 0 Calma 9 Sudeste 0 -- -- 81
2019-12-09 20:00:00 12.6 6 Sudeste 9 Sudeste 0 -- -- 81
2019-12-09 19:00:00 13.8 3 Sur 10 Sur 0 -- -- 77
2019-12-09 18:00:00 15.9 8 Sudoeste 15 Sudoeste 0 -- -- 70
2019-12-09 17:00:00 17.4 4 Sur 14 Oeste 0 -- -- 63
2019-12-09 16:00:00 17.6 9 Sudoeste 17 Sur 0 -- -- 60
2019-12-09 15:00:00 17.4 10 Sudoeste 22 Sudoeste 0 -- -- 68
2019-12-09 14:00:00 17.2 10 Sudoeste 19 Sudoeste 0 -- -- 68
2019-12-09 13:00:00 17 8 Oeste 18 Sur 0 -- -- 69
2019-12-09 12:00:00 15.8 11 Sur 18 Sur 0 -- -- 75
2019-12-09 11:00:00 15.2 6 Sur 15 Sudoeste 0 -- -- 77
2019-12-09 10:00:00 14.7 8 Sudoeste 13 Sur 0 -- -- 81
2019-12-09 09:00:00 12.4 6 Sudeste 12 Sudeste 0 -- -- 87
2019-12-09 08:00:00 10.9 4 Sudeste 9 Sudeste 0 -- -- 86
2019-12-09 07:00:00 10.9 6 Sudeste 9 Sudeste 0 -- -- 85
2019-12-09 06:00:00 11.2 3 Sudeste 10 Sudeste 0 -- -- 82
2019-12-09 05:00:00 11 5 Sudeste 11 Sudeste 0 -- -- 81
2019-12-09 04:00:00 11.5 5 Sudeste 12 Sudeste 0 -- -- 87
2019-12-09 03:00:00 11.6 7 Sudeste 15 Sudeste 0 -- -- 87
2019-12-09 02:00:00 11.4 7 Sudeste 12 Sudeste 0 -- -- 86
2019-12-09 01:00:00 11.6 5 Sudeste 14 Sudeste 0 -- -- 85
2019-12-09 00:00:00 12 7 Sudeste 14 Sudeste 0 -- -- 84
2019-12-08 23:00:00 12 5 Este 12 Sudeste 0 -- -- 83
2019-12-08 22:00:00 12.2 5 Sudeste 13 Sudeste 0 -- -- 82
2019-12-08 21:00:00 12.6 4 Este 11 Sudeste 0 -- -- 82
2019-12-08 20:00:00 13 6 Sudeste 9 Este 0 -- -- 80
2019-12-08 19:00:00 14.1 0 Calma 9 Noroeste 0 -- -- 75
2019-12-08 18:00:00 16.3 5 Sudoeste 16 Sudoeste 0 -- -- 69
2019-12-08 17:00:00 17.5 8 Oeste 19 Sudoeste 0 -- -- 63
2019-12-08 16:00:00 18.1 12 Sudoeste 22 Sudoeste 0 -- -- 58
2019-12-08 15:00:00 17.1 9 Oeste 20 Sudoeste 0 -- -- 62
2019-12-08 14:00:00 17.8 15 Sur 29 Sudoeste 0 -- -- 65
2019-12-08 13:00:00 17.5 10 Sur 22 Sur 0 -- -- 59
2019-12-08 12:00:00 16.8 8 Sudoeste 18 Sudoeste 0 -- -- 62
2019-12-08 11:00:00 15.9 13 Sur 24 Sudoeste 0 -- -- 67
2019-12-08 10:00:00 15.2 5 Sur 11 Sudeste 0 -- -- 64
2019-12-08 09:00:00 12 6 Este 14 Sudeste 0 -- -- 79
2019-12-08 08:00:00 11.3 7 Sudeste 17 Sudeste 0 -- -- 81
2019-12-08 07:00:00 10.9 8 Sudeste 12 Sudeste 0 -- -- 83
2019-12-08 06:00:00 10.9 6 Sudeste 12 Sudeste 0 -- -- 82
2019-12-08 05:00:00 11.2 7 Sudeste 11 Este 0 -- -- 83
2019-12-08 04:00:00 11.6 8 Este 12 Este 0 -- -- 81
2019-12-08 03:00:00 12 5 Este 10 Este 0 -- -- 83
2019-12-08 02:00:00 12 5 Sudeste 12 Sudeste 0 -- -- 80
2019-12-08 01:00:00 12.3 4 Este 15 Sudeste 0 -- -- 76
2019-12-08 00:00:00 13.1 9 Sudeste 33 Nordeste 0 -- -- 72
2019-12-07 23:00:00 14.2 3 Sudeste 36 Nordeste 0 -- -- 72
2019-12-07 22:00:00 14.5 14 Este 38 Este 0 -- -- 66
2019-12-07 21:00:00 14.1 21 Nordeste 40 Nordeste 0 -- -- 60
2019-12-07 20:00:00 13.5 5 Nordeste 22 Sudeste 0 -- -- 66
2019-12-07 19:00:00 14.4 5 Este 33 Este 0 -- -- 67
2019-12-07 18:00:00 15.7 16 Nordeste 39 Este 0 -- -- 66
2019-12-07 17:00:00 17.8 5 Sudoeste 20 Sur 0 -- -- 65
2019-12-07 16:00:00 18.4 5 Sudoeste 18 Sur 0 -- -- 60
2019-12-07 15:00:00 18.2 6 Sudoeste 26 Sur 0 -- -- 58
2019-12-07 14:00:00 18.1 8 Sudoeste 22 Sur 0 -- -- 59
2019-12-07 13:00:00 17.8 13 Sudoeste 22 Sudoeste 0 -- -- 58
2019-12-07 12:00:00 16.8 8 Noroeste 20 Noroeste 0 -- -- 71
2019-12-07 11:00:00 16.1 9 Este 22 Nordeste 0 -- -- 67
2019-12-07 10:00:00 15.2 12 Nordeste 44 Nordeste 0 -- -- 68
2019-12-07 09:00:00 13.7 21 Nordeste 39 Nordeste 0 -- -- 71
2019-12-07 08:00:00 13.1 14 Nordeste 39 Este 0 -- -- 80
2019-12-07 07:00:00 13.1 10 Nordeste 36 Nordeste 0 -- -- 80
2019-12-07 06:00:00 13.1 9 Nordeste 39 Nordeste 0 -- -- 81
2019-12-07 05:00:00 12.9 13 Nordeste 33 Nordeste 0 -- -- 82
2019-12-07 04:00:00 13.3 14 Nordeste 35 Nordeste 0 -- -- 69
2019-12-07 03:00:00 13.1 17 Nordeste 35 Nordeste 0 -- -- 75
2019-12-07 02:00:00 12.9 11 Nordeste 32 Este 0 -- -- 83
2019-12-07 01:00:00 12.9 15 Nordeste 35 Nordeste 0 -- -- 82
2019-12-07 00:00:00 13 17 Nordeste 33 Nordeste 0 -- -- 82
2019-12-06 23:00:00 12.9 14 Nordeste 40 Norte 0 -- -- 79
2019-12-06 22:00:00 13.1 17 Nordeste 46 Nordeste 0 -- -- 80
2019-12-06 21:00:00 13.1 20 Nordeste 45 Nordeste 0 -- -- 74
2019-12-06 20:00:00 13.3 19 Nordeste 43 Nordeste 0 -- -- 77
2019-12-06 19:00:00 13.6 21 Nordeste 48 Nordeste 0 -- -- 69
2019-12-06 18:00:00 14.5 22 Nordeste 48 Nordeste 0 -- -- 67
2019-12-06 17:00:00 15.7 26 Nordeste 57 Este 0.2 -- -- 60
2019-12-06 16:00:00 15.8 28 Nordeste 61 Este 0 -- -- 62
2019-12-06 15:00:00 16.1 28 Nordeste 53 Este 0 -- -- 60
2019-12-06 14:00:00 15.6 27 Nordeste 50 Nordeste 0 -- -- 57
2019-12-06 13:00:00 15.1 26 Nordeste 53 Nordeste 0 -- -- 71
2019-12-06 12:00:00 14 17 Nordeste 49 Nordeste 0 -- -- 82
2019-12-06 11:00:00 13.5 21 Nordeste 48 Este 0.4 -- -- 86
2019-12-06 10:00:00 13.6 19 Nordeste 50 Este 0 -- -- 84
2019-12-06 09:00:00 13.2 26 Este 53 Nordeste 0 -- -- 75
2019-12-06 08:00:00 12.4 21 Nordeste 57 Este 0.6 -- -- 83
2019-12-06 07:00:00 12.2 28 Nordeste 60 Nordeste 0.2 -- -- 84
2019-12-06 06:00:00 12.2 31 Nordeste 64 Nordeste 0.8 -- -- 80
2019-12-06 05:00:00 12 23 Nordeste 59 Nordeste 0 -- -- 87
2019-12-06 04:00:00 12.4 28 Nordeste 53 Nordeste 0 -- -- 88
2019-12-06 03:00:00 11.9 26 Nordeste 64 Nordeste 0.8 -- -- 89
2019-12-06 02:00:00 12.1 30 Nordeste 63 Norte 0.4 -- -- 90
2019-12-06 01:00:00 12.1 30 Nordeste 55 Norte 0 -- -- 87
2019-12-06 00:00:00 11.9 33 Nordeste 59 Norte 0.6 -- -- 90
2019-12-05 23:00:00 12 32 Nordeste 58 Nordeste 2.6 -- -- 91
2019-12-05 22:00:00 11.6 28 Nordeste 60 Nordeste 1 -- -- 90
2019-12-05 21:00:00 11.2 37 Nordeste 66 Nordeste 2.4 -- -- 93
2019-12-05 20:00:00 11.9 28 Nordeste 48 Norte 0.2 -- -- 86
2019-12-05 19:00:00 11.9 28 Nordeste 50 Norte 0 -- -- 82
2019-12-05 18:00:00 11.4 20 Nordeste 54 Nordeste 0.2 -- -- 84
2019-12-05 17:00:00 13.8 24 Nordeste 63 Norte 0 -- -- 77
2019-12-05 16:00:00 14.4 27 Nordeste 56 Nordeste 0 -- -- 68
2019-12-05 15:00:00 14.1 26 Nordeste 52 Norte 0 -- -- 80
2019-12-05 14:00:00 13.2 27 Nordeste 58 Norte 2.8 -- -- 89
2019-12-05 13:00:00 12.7 26 Nordeste 60 Norte 2 -- -- 94
2019-12-05 12:00:00 12.1 29 Nordeste 60 Nordeste 1.6 -- -- 94
2019-12-05 11:00:00 12 29 Nordeste 65 Norte 0.6 -- -- 94
2019-12-05 10:00:00 12.1 36 Norte 63 Norte 0 -- -- 90
2019-12-05 09:00:00 11.8 30 Norte 57 Norte 0.2 -- -- 92
2019-12-05 08:00:00 11.7 33 Norte 68 Norte 0 -- -- 88
2019-12-05 07:00:00 11.6 37 Norte 62 Norte 0 -- -- 82
2019-12-05 06:00:00 11.8 33 Norte 74 Norte 0 -- -- 84
2019-12-05 05:00:00 11.8 39 Norte 66 Norte 0 -- -- 83
2019-12-05 04:00:00 11.5 33 Nordeste 66 Norte 0 -- -- 80
2019-12-05 03:00:00 11.6 37 Norte 62 Norte 0.2 -- -- 79
2019-12-05 02:00:00 11.8 34 Nordeste 56 Norte 0 -- -- 84
2019-12-05 01:00:00 12 30 Nordeste 50 Norte 0.8 -- -- 93
2019-12-05 00:00:00 12.1 32 Nordeste 59 Nordeste 3.8 -- -- 96
2019-12-04 23:00:00 13.4 28 Nordeste 58 Nordeste 2.8 -- -- 97
2019-12-04 22:00:00 13.9 30 Norte 57 Norte 2 -- -- 96
2019-12-04 21:00:00 14.1 19 Norte 33 Norte 2 -- -- 95
2019-12-04 20:00:00 13.7 19 Norte 36 Norte 0.4 -- -- 94
2019-12-04 19:00:00 13.2 16 Nordeste 37 Norte 0.8 -- -- 92
2019-12-04 18:00:00 14.4 19 Norte 37 Norte 0 -- -- 77
2019-12-04 17:00:00 15.5 19 Norte 42 Norte 0 -- -- 74
2019-12-04 16:00:00 14.8 29 Norte 42 Norte 0 -- -- 80
2019-12-04 15:00:00 16.2 23 Norte 36 Nordeste 0 -- -- 68
2019-12-04 14:00:00 16.4 14 Norte 33 Norte 0 -- -- 59
2019-12-04 13:00:00 16 15 Norte 31 Nordeste 0 -- -- 62
2019-12-04 12:00:00 14.9 19 Norte 35 Norte 0 -- -- 74
2019-12-04 11:00:00 15 20 Norte 33 Norte 0 -- -- 71
2019-12-04 10:00:00 14.6 15 Norte 30 Norte 0 -- -- 75
2019-12-04 09:00:00 13.1 11 Nordeste 22 Nordeste 0 -- -- 87
2019-12-04 08:00:00 12.8 11 Nordeste 30 Norte 0 -- -- 84
2019-12-04 07:00:00 13 16 Norte 30 Nordeste 0 -- -- 80
2019-12-04 06:00:00 13.5 17 Norte 30 Nordeste 0 -- -- 70
2019-12-04 05:00:00 12.7 13 Nordeste 29 Norte 0 -- -- 84
2019-12-04 04:00:00 13.2 16 Norte 24 Norte 0 -- -- 87
2019-12-04 03:00:00 13.7 5 Nordeste 28 Nordeste 0 -- -- 65
2019-12-04 02:00:00 13.4 7 Nordeste 18 Nordeste 0 -- -- 69
2019-12-04 01:00:00 13.3 6 Nordeste 24 Este 0 -- -- 68
2019-12-04 00:00:00 12.1 5 Este 24 Nordeste 0 -- -- 72
2019-12-03 23:00:00 13.6 15 Nordeste 35 Este 0 -- -- 59
2019-12-03 22:00:00 13.5 9 Nordeste 30 Este 0 -- -- 60
2019-12-03 21:00:00 13.5 13 Nordeste 31 Nordeste 0 -- -- 64
2019-12-03 20:00:00 13 15 Norte 24 Nordeste 0 -- -- 82
2019-12-03 19:00:00 13 14 Nordeste 27 Nordeste 0 -- -- 80
2019-12-03 18:00:00 13.8 18 Nordeste 35 Norte 0 -- -- 77
2019-12-03 17:00:00 14.2 17 Nordeste 40 Nordeste 0 -- -- 75
2019-12-03 16:00:00 16 25 Norte 39 Norte 0 -- -- 70
2019-12-03 15:00:00 17 23 Norte 45 Norte 0 -- -- 66
2019-12-03 14:00:00 16.5 26 Norte 45 Norte 0 -- -- 62
2019-12-03 13:00:00 15.7 24 Norte 39 Norte 0 -- -- 61
2019-12-03 12:00:00 16.2 18 Norte 37 Norte 0 -- -- 67
2019-12-03 11:00:00 14.8 18 Nordeste 36 Este 0 -- -- 68
2019-12-03 10:00:00 14.4 14 Nordeste 38 Este 0 -- -- 71
2019-12-03 09:00:00 12.8 10 Nordeste 28 Norte 0 -- -- 76
2019-12-03 08:00:00 12.5 15 Nordeste 35 Nordeste 0 -- -- 79
2019-12-03 07:00:00 12.8 16 Nordeste 46 Nordeste 0 -- -- 80
2019-12-03 06:00:00 12.5 18 Nordeste 37 Nordeste 0 -- -- 83
2019-12-03 05:00:00 12.2 19 Nordeste 37 Norte 0.2 -- -- 85
2019-12-03 04:00:00 12.5 22 Norte 39 Nordeste 0 -- -- 89
2019-12-03 03:00:00 12.5 17 Nordeste 40 Norte 0 -- -- 80
2019-12-03 02:00:00 12.5 19 Nordeste 48 Nordeste 0 -- -- 80
2019-12-03 01:00:00 12.4 22 Nordeste 42 Nordeste 0 -- -- 84
2019-12-03 00:00:00 12.4 23 Nordeste 40 Norte 0.2 -- -- 91
2019-12-02 23:00:00 12 23 Nordeste 46 Norte 1 -- -- 90
2019-12-02 22:00:00 12.7 23 Norte 46 Nordeste 0.6 -- -- 91
2019-12-02 21:00:00 12.8 24 Norte 42 Norte 0.2 -- -- 92
2019-12-02 20:00:00 12.9 23 Nordeste 43 Norte 0.2 -- -- 92
2019-12-02 19:00:00 13.7 19 Norte 33 Norte 0 -- -- 76
2019-12-02 18:00:00 13.7 15 Nordeste 40 Norte 0 -- -- 77
2019-12-02 17:00:00 16.1 22 Norte 46 Norte 0 -- -- 67
2019-12-02 16:00:00 16.3 24 Norte 45 Norte 0 -- -- 67
2019-12-02 15:00:00 16.6 24 Norte 49 Norte 0 -- -- 67
2019-12-02 14:00:00 17.8 19 Nordeste 54 Norte 0 -- -- 57
2019-12-02 13:00:00 16.4 27 Norte 47 Norte 0 -- -- 60
2019-12-02 12:00:00 15.8 27 Norte 46 Norte 0 -- -- 64
2019-12-02 11:00:00 15.3 26 Nordeste 44 Nordeste 0 -- -- 72
2019-12-02 10:00:00 14.7 25 Norte 44 Norte 0 -- -- 78
2019-12-02 09:00:00 14 18 Nordeste 41 Nordeste 0 -- -- 82
2019-12-02 08:00:00 13.6 20 Nordeste 40 Nordeste 0 -- -- 81
2019-12-02 07:00:00 13.8 18 Nordeste 38 Nordeste 0 -- -- 85
2019-12-02 06:00:00 14.3 20 Nordeste 39 Nordeste 0 -- -- 70
2019-12-02 05:00:00 12.7 13 Este 22 Nordeste 0 -- -- 77
2019-12-02 04:00:00 13.1 6 Nordeste 11 Sur 0 -- -- 82
2019-12-02 03:00:00 12.9 3 Norte 8 Norte 0 -- -- 79
2019-12-02 02:00:00 12.8 3 Este 7 Nordeste 0 -- -- 72
2019-12-02 01:00:00 13.5 4 Sudeste 8 Sudeste 0 -- -- 68
2019-12-02 00:00:00 13.7 4 Este 9 Sur 0 -- -- 68
2019-12-01 23:00:00 13.4 5 Sudeste 10 Sudeste 0 -- -- 72
2019-12-01 22:00:00 13.8 7 Sudeste 11 Sudeste 0 -- -- 76
2019-12-01 21:00:00 14.6 7 Sur 14 Sur 0 -- -- 82
2019-12-01 20:00:00 15.5 0 Calma 4 Este 0 -- -- 83
2019-12-01 19:00:00 16.5 0 Calma 7 Sur 0 -- -- 81
2019-12-01 18:00:00 17.9 4 Sudoeste 12 Sudoeste 0 -- -- 78
2019-12-01 17:00:00 19.8 6 Sudoeste 13 Sudoeste 0 -- -- 74
2019-12-01 16:00:00 21.6 6 Sudoeste 13 Sudoeste 0 -- -- 68
2019-12-01 15:00:00 23.1 6 Sudoeste 15 Oeste 0 -- -- 62
2019-12-01 14:00:00 24.4 6 Sudoeste 11 Sur 0 -- -- 30
2019-12-01 13:00:00 23.3 7 Sudoeste 12 Sudoeste 0 -- -- 34
2019-12-01 12:00:00 21.8 6 Sur 11 Sur 0 -- -- 51
2019-12-01 11:00:00 23 6 Sur 10 Oeste 0 -- -- 28
2019-12-01 10:00:00 22.4 3 Sudoeste 9 Noroeste 0 -- -- 25
2019-12-01 09:00:00 20.5 5 Sudeste 8 Sudeste 0 -- -- 27
2019-12-01 08:00:00 18.7 4 Este 8 Este 0 -- -- 29
2019-12-01 07:00:00 18.3 7 Sudeste 10 Sudeste 0 -- -- 29
2019-12-01 06:00:00 18.5 5 Sudeste 11 Sudeste 0 -- -- 29
2019-12-01 05:00:00 18.2 7 Sudeste 10 Sudeste 0 -- -- 30
2019-12-01 04:00:00 19 5 Este 10 Este 0 -- -- 28
2019-12-01 03:00:00 19.7 5 Este 15 Este 0 -- -- 27
2019-12-01 02:00:00 19.5 8 Sudeste 13 Este 0 -- -- 28
2019-12-01 01:00:00 19.5 6 Sudeste 12 Sudeste 0 -- -- 28
2019-12-01 00:00:00 19.7 5 Sudeste 9 Sudeste 0 -- -- 28
2019-11-30 23:00:00 20.1 0 Calma 10 Sudeste 0 -- -- 26
2019-11-30 22:00:00 20.1 3 Sur 14 Sudeste 0 -- -- 26
2019-11-30 21:00:00 21.2 4 Este 14 Sudeste 0 -- -- 25
2019-11-30 20:00:00 20.5 5 Sudeste 12 Sudeste 0 -- -- 28
2019-11-30 19:00:00 21.5 3 Norte 5 Norte 0 -- -- 31
2019-11-30 18:00:00 24.6 2 Sudeste 12 Sur 0 -- -- 24
2019-11-30 17:00:00 26.2 6 Sur 13 Sudoeste 0 -- -- 20
2019-11-30 16:00:00 26.4 5 Sudoeste 13 Sudoeste 0 -- -- 23
2019-11-30 15:00:00 26.7 7 Sudoeste 15 Sudoeste 0 -- -- 23
2019-11-30 14:00:00 26.6 8 Sudoeste 15 Oeste 0 -- -- 23
2019-11-30 13:00:00 26.3 8 Oeste 15 Oeste 0 -- -- 20
2019-11-30 12:00:00 25.9 8 Sudoeste 13 Sudoeste 0 -- -- 21
2019-11-30 11:00:00 24.9 6 Noroeste 12 Noroeste 0 -- -- 22
2019-11-30 10:00:00 23.7 3 Nordeste 5 Nordeste 0 -- -- 24
2019-11-30 09:00:00 21.3 0 Calma 5 Este 0 -- -- 28
2019-11-30 08:00:00 20.2 2 Este 6 Este 0 -- -- 28
2019-11-30 07:00:00 20.1 5 Nordeste 10 Este 0 -- -- 29
2019-11-30 06:00:00 20.3 3 Nordeste 15 Este 0 -- -- 27
2019-11-30 05:00:00 20.2 3 Nordeste 14 Este 0 -- -- 29
2019-11-30 04:00:00 20 10 Nordeste 13 Nordeste 0 -- -- 30
2019-11-30 03:00:00 19.9 9 Nordeste 13 Nordeste 0 -- -- 30
2019-11-30 02:00:00 20.3 8 Nordeste 15 Este 0 -- -- 30
2019-11-30 01:00:00 20 5 Este 13 Nordeste 0 -- -- 30
2019-11-30 00:00:00 19.3 2 Nordeste 15 Sudeste 0 -- -- 32
2019-11-29 23:00:00 19.2 6 Sudeste 14 Sudeste 0 -- -- 32
2019-11-29 22:00:00 18.9 5 Sudeste 9 Sudeste 0 -- -- 33
2019-11-29 21:00:00 19.1 3 Este 13 Norte 0 -- -- 33
2019-11-29 20:00:00 20 8 Nordeste 16 Nordeste 0 -- -- 33
2019-11-29 19:00:00 19.9 7 Este 10 Nordeste 0 -- -- 34
2019-11-29 18:00:00 23.5 0 Calma 12 Sudoeste 0 -- -- 32
2019-11-29 17:00:00 23.7 5 Sur 12 Sur 0 -- -- 32
2019-11-29 16:00:00 23.6 5 Sudoeste 13 Sudoeste 0 -- -- 44
2019-11-29 15:00:00 23.6 5 Sudoeste 14 Sudoeste 0 -- -- 41
2019-11-29 14:00:00 23.6 7 Oeste 14 Sudoeste 0 -- -- 50
2019-11-29 13:00:00 24.3 7 Sudoeste 15 Sur 0 -- -- 32
2019-11-29 12:00:00 22.6 4 Sudoeste 14 Sudoeste 0 -- -- 44
2019-11-29 11:00:00 22.3 4 Sudoeste 11 Noroeste 0 -- -- 35
2019-11-29 10:00:00 21 0 Calma 8 Este 0 -- -- 35
2019-11-29 09:00:00 18.4 2 Sudeste 7 Este 0 -- -- 40
2019-11-29 08:00:00 16.9 2 Norte 10 Este 0 -- -- 41
2019-11-29 07:00:00 16.7 5 Nordeste 9 Este 0 -- -- 41
2019-11-29 06:00:00 16.7 0 Calma 8 Este 0 -- -- 41
2019-11-29 05:00:00 16.4 5 Este 10 Este 0 -- -- 42
2019-11-29 04:00:00 16.7 0 Calma 7 Este 0 -- -- 41
2019-11-29 03:00:00 16.3 5 Este 7 Sudeste 0 -- -- 43
2019-11-29 02:00:00 16.3 3 Este 13 Este 0 -- -- 43
2019-11-29 01:00:00 16 9 Este 12 Este 0 -- -- 45
2019-11-29 00:00:00 15.9 7 Este 10 Este 0 -- -- 47
2019-11-28 23:00:00 15.9 5 Nordeste 12 Nordeste 0 -- -- 47
2019-11-28 22:00:00 16 9 Nordeste 11 Nordeste 0 -- -- 47
2019-11-28 21:00:00 16.3 9 Este 15 Nordeste 0 -- -- 45
2019-11-28 20:00:00 16.5 9 Nordeste 14 Nordeste 0 -- -- 48
2019-11-28 19:00:00 16 9 Este 11 Nordeste 0 -- -- 53
2019-11-28 18:00:00 16.8 6 Nordeste 12 Nordeste 0 -- -- 70
2019-11-28 17:00:00 17.4 5 Sur 12 Sur 0 -- -- 77
2019-11-28 16:00:00 17.6 4 Sudoeste 11 Sur 0 -- -- 78
2019-11-28 15:00:00 16.5 6 Noroeste 11 Oeste 0 -- -- 83
2019-11-28 14:00:00 16.2 5 Sudoeste 13 Sudoeste 0 -- -- 84
2019-11-28 13:00:00 15.8 9 Sudoeste 17 Sudoeste 0 -- -- 87
2019-11-28 12:00:00 17.1 6 Sudoeste 14 Noroeste 0 -- -- 79
2019-11-28 11:00:00 16 8 Sur 17 Sur 0 -- -- 83
2019-11-28 10:00:00 15.3 12 Sur 18 Sur 0 -- -- 85
2019-11-28 09:00:00 14 5 Sudeste 11 Sudeste 0 -- -- 87
2019-11-28 08:00:00 12.4 5 Sur 10 Nordeste 0 -- -- 88
2019-11-28 07:00:00 11.7 4 Sudeste 9 Nordeste 0 -- -- 88
2019-11-28 06:00:00 12 2 Este 8 Sudeste 0.2 -- -- 94
2019-11-28 05:00:00 12.3 5 Sudeste 8 Sudeste 0 -- -- 94
2019-11-28 04:00:00 12.1 0 Calma 5 Este 0 -- -- 91
2019-11-28 03:00:00 12.2 5 Nordeste 10 Nordeste 0 -- -- 91
2019-11-28 02:00:00 12.8 0 Calma 5 Este 0 -- -- 92
2019-11-28 01:00:00 13.9 3 Sudeste 9 Sudoeste 0 -- -- 92
2019-11-28 00:00:00 14.4 0 Calma 9 Sur 0 -- -- 93
2019-11-27 23:00:00 14.2 5 Sur 9 Sur 0 -- -- 94
2019-11-27 22:00:00 14.6 2 Sur 14 Sur 0 -- -- 95
2019-11-27 21:00:00 14.8 10 Sur 16 Sur 0 -- -- 94
2019-11-27 20:00:00 14.9 4 Sudoeste 11 Sudoeste 0 -- -- 93
2019-11-27 19:00:00 15 2 Sudoeste 12 Sudoeste 0 -- -- 90
2019-11-27 18:00:00 15.9 6 Sudoeste 13 Oeste 0 -- -- 87
2019-11-27 17:00:00 16.5 6 Sur 12 Sur 0 -- -- 85
2019-11-27 16:00:00 16.1 4 Sudoeste 12 Sur 0 -- -- 88
2019-11-27 15:00:00 16.7 6 Sudoeste 12 Sudoeste 0 -- -- 81
2019-11-27 14:00:00 16.2 6 Sudoeste 17 Sur 0 -- -- 83
2019-11-27 13:00:00 17.3 9 Sur 16 Sur 0 -- -- 78
2019-11-27 05:00:00 12.2 2 Sudeste 8 Sudeste 0 -- -- 87
2019-11-27 04:00:00 12.5 4 Sudeste 7 Sudeste 0 -- -- 86
2019-11-27 03:00:00 12.5 6 Nordeste 7 Este 0 -- -- 87
2019-11-27 02:00:00 12.2 5 Sudeste 7 Este 0 -- -- 87
2019-11-27 01:00:00 12.2 0 Calma 6 Sudeste 0 -- -- 92
2019-11-27 00:00:00 12.3 4 Sudeste 8 Sudeste 0 -- -- 91
2019-11-26 23:00:00 12.8 3 Este 8 Sudeste 0 -- -- 91
2019-11-26 22:00:00 13 4 Sudeste 13 Nordeste 0 -- -- 89
2019-11-26 21:00:00 13.8 0 Calma 9 Sur 0 -- -- 89
2019-11-26 20:00:00 13.8 2 Sudeste 7 Sudeste 0 -- -- 84
2019-11-26 19:00:00 14.8 3 Este 9 Este 0 -- -- 83
2019-11-26 18:00:00 16.3 3 Sudoeste 7 Sudoeste 0 -- -- 78
2019-11-26 17:00:00 16.7 5 Sudoeste 14 Sur 0 -- -- 74
2019-11-26 16:00:00 17.4 6 Oeste 15 Sur 0 -- -- 71
2019-11-26 15:00:00 18.2 8 Sudoeste 20 Sur 0 -- -- 69
2019-11-26 14:00:00 18.9 7 Oeste 16 Oeste 0 -- -- 63
2019-11-26 13:00:00 18 8 Oeste 16 Sudoeste 0 -- -- 65
2019-11-26 12:00:00 17.3 9 Sudoeste 16 Oeste 0 -- -- 67
2019-11-26 11:00:00 16.7 10 Sur 18 Sur 0 -- -- 69
2019-11-26 10:00:00 15.9 6 Sur 12 Sur 0 -- -- 71
2019-11-26 09:00:00 13.6 5 Sur 9 Sudeste 0 -- -- 80
2019-11-26 08:00:00 11.7 6 Sudeste 10 Sudeste 0 -- -- 85
2019-11-26 07:00:00 12.2 5 Sudeste 9 Sudeste 0 -- -- 82
2019-11-26 06:00:00 13.4 4 Este 9 Este 0 -- -- 80
2019-11-26 05:00:00 13.8 2 Sudoeste 11 Sudeste 0 -- -- 81
2019-11-26 04:00:00 13.6 6 Sudeste 14 Sudeste 0 -- -- 79
2019-11-26 03:00:00 13.7 4 Sudeste 10 Sudeste 0 -- -- 81
2019-11-26 02:00:00 13.9 3 Sur 8 Nordeste 0 -- -- 85
2019-11-26 01:00:00 14.2 0 Calma 8 Sur 0 -- -- 86
2019-11-26 00:00:00 14.2 4 Sur 7 Sur 0 -- -- 88
2019-11-25 23:00:00 14.2 5 Sur 7 Sur 0 -- -- 89
2019-11-25 22:00:00 14.3 4 Sur 12 Sudoeste 0 -- -- 90
2019-11-25 21:00:00 14.5 2 Este 13 Sudoeste 0 -- -- 89
2019-11-25 20:00:00 14.7 6 Sudoeste 13 Sur 0 -- -- 88
2019-11-25 19:00:00 15.2 4 Sudoeste 11 Sur 0 -- -- 85
2019-11-25 18:00:00 16.6 5 Sudoeste 11 Sur 0 -- -- 74
2019-11-25 17:00:00 15.7 6 Sudoeste 12 Sudoeste 0 -- -- 78
2019-11-25 16:00:00 15.7 4 Noroeste 10 Noroeste 0 -- -- 78
2019-11-25 15:00:00 15.8 4 Sur 15 Sur 0 -- -- 77
2019-11-25 14:00:00 16.4 8 Sudoeste 15 Sudoeste 0 -- -- 72
2019-11-25 13:00:00 16.2 7 Sur 14 Sudoeste 0 -- -- 74
2019-11-25 12:00:00 16.4 8 Sudoeste 16 Sudoeste 0 -- -- 75
2019-11-25 11:00:00 15.5 8 Norte 13 Norte 0 -- -- 79
2019-11-25 10:00:00 15.1 4 Sudoeste 14 Sudoeste 0 -- -- 84
2019-11-25 09:00:00 14.4 8 Sur 13 Sudoeste 0 -- -- 88
2019-11-25 08:00:00 13 0 Calma 8 Sudeste 0 -- -- 91
2019-11-25 07:00:00 12.5 4 Sudeste 10 Este 0 -- -- 88
2019-11-25 06:00:00 13.5 3 Sudeste 10 Sudeste 0 -- -- 92
2019-11-25 05:00:00 13.4 6 Sudeste 9 Sudeste 0 -- -- 91
2019-11-25 04:00:00 14.2 0 Calma 7 Sudoeste 0 -- -- 92
2019-11-25 03:00:00 15 3 Sudoeste 6 Sudoeste 0 -- -- 94
2019-11-25 02:00:00 15 0 Calma 5 Sur 0.2 -- -- 94
2019-11-25 01:00:00 15.1 2 Este 7 Sudoeste 0 -- -- 92
2019-11-25 00:00:00 14.8 3 Sur 10 Sudeste 0 -- -- 89
2019-11-24 23:00:00 14.5 7 Sudeste 10 Sudeste 0 -- -- 89
2019-11-24 22:00:00 14.9 2 Nordeste 6 Sur 0 -- -- 91
2019-11-24 21:00:00 15.2 3 Sur 9 Sur 0 -- -- 93
2019-11-24 20:00:00 15.3 4 Sur 10 Sur 0 -- -- 93
2019-11-24 19:00:00 15.6 3 Norte 12 Sur 0 -- -- 91
2019-11-24 18:00:00 16.2 7 Sudoeste 15 Sur 0 -- -- 91
2019-11-24 17:00:00 17.3 7 Sudoeste 17 Sur 0 -- -- 84
2019-11-24 16:00:00 18.7 10 Sur 18 Sudoeste 0 -- -- 73
2019-11-24 15:00:00 18.8 7 Sudoeste 17 Sudoeste 0 -- -- 72
2019-11-24 14:00:00 18.6 8 Sudoeste 15 Sur 0 -- -- 69
2019-11-24 13:00:00 18.4 10 Sur 22 Sudoeste 0 -- -- 74
2019-11-24 12:00:00 17.7 7 Sudoeste 14 Sudoeste 0 -- -- 73
2019-11-24 11:00:00 16.9 6 Oeste 12 Sudoeste 0 -- -- 75
2019-11-24 10:00:00 16.9 6 Sur 11 Sudoeste 0 -- -- 70
2019-11-24 09:00:00 14.7 3 Sudeste 10 Sudeste 0 -- -- 78
2019-11-24 08:00:00 12.5 7 Sudeste 11 Sudeste 0 -- -- 80
2019-11-24 07:00:00 12.5 8 Sudeste 10 Sudeste 0 -- -- 81
2019-11-24 06:00:00 13 6 Este 9 Sudeste 0 -- -- 84
2019-11-24 05:00:00 13.3 4 Sudeste 22 Nordeste 0 -- -- 76
2019-11-24 04:00:00 14 14 Este 28 Nordeste 0 -- -- 68
2019-11-24 03:00:00 13.8 13 Este 25 Este 0 -- -- 76
2019-11-24 02:00:00 13.4 5 Este 10 Sudeste 0 -- -- 82
2019-11-24 01:00:00 13.6 5 Sudeste 9 Sudeste 0 -- -- 74
2019-11-24 00:00:00 14.3 3 Nordeste 8 Nordeste 0 -- -- 76
2019-11-23 23:00:00 14.6 0 Calma 16 Nordeste 0 -- -- 78
2019-11-23 22:00:00 15.3 4 Norte 22 Este 0 -- -- 65
2019-11-23 21:00:00 14.7 3 Sudoeste 21 Norte 0 -- -- 84
2019-11-23 20:00:00 15.5 2 Sur 10 Sudoeste 0 -- -- 91
2019-11-23 19:00:00 16.2 2 Sur 9 Sur 0 -- -- 88
2019-11-23 18:00:00 18 5 Sudoeste 13 Sudoeste 0 -- -- 85
2019-11-23 17:00:00 18.9 4 Sudoeste 17 Sudoeste 0 -- -- 82
2019-11-23 16:00:00 19.6 9 Sur 17 Sur 0 -- -- 78
2019-11-23 15:00:00 19.2 4 Noroeste 15 Oeste 0 -- -- 79
2019-11-23 14:00:00 18.6 8 Sudoeste 17 Sudoeste 0 -- -- 81
2019-11-23 13:00:00 17.7 3 Oeste 11 Sur 0 -- -- 87
2019-11-23 12:00:00 17.3 4 Oeste 14 Sur 0 -- -- 88
2019-11-23 11:00:00 17.6 5 Oeste 19 Noroeste 0 -- -- 85
2019-11-23 10:00:00 17.6 9 Norte 31 Nordeste 0 -- -- 85
2019-11-23 09:00:00 16.2 10 Nordeste 28 Norte 0 -- -- 83
2019-11-23 08:00:00 15.4 13 Nordeste 27 Nordeste 0 -- -- 89
2019-11-23 07:00:00 15.4 10 Nordeste 30 Nordeste 0 -- -- 85
2019-11-23 06:00:00 15.2 12 Nordeste 24 Nordeste 0 -- -- 91
2019-11-23 05:00:00 15.2 9 Nordeste 25 Nordeste 0 -- -- 91
2019-11-23 04:00:00 14.8 8 Nordeste 27 Nordeste 0 -- -- 92
2019-11-23 03:00:00 15.5 14 Nordeste 33 Nordeste 0 -- -- 93
2019-11-23 02:00:00 15.8 19 Nordeste 31 Nordeste 0.2 -- -- 95
2019-11-23 01:00:00 15.9 13 Nordeste 28 Nordeste 0 -- -- 95
2019-11-23 00:00:00 15.9 10 Nordeste 18 Este 0.2 -- -- 95
2019-11-22 23:00:00 15.9 13 Nordeste 21 Nordeste 0 -- -- 95
2019-11-22 22:00:00 16.2 10 Nordeste 19 Norte 0.2 -- -- 95
2019-11-22 21:00:00 16.3 9 Nordeste 19 Nordeste 0 -- -- 94
2019-11-22 20:00:00 16.3 10 Nordeste 16 Norte 0 -- -- 93
2019-11-22 19:00:00 16.8 7 Norte 17 Nordeste 0 -- -- 90
2019-11-22 18:00:00 17.2 13 Norte 22 Norte 0 -- -- 87
2019-11-22 17:00:00 18.8 14 Norte 20 Norte 0 -- -- 81
2019-11-22 16:00:00 18.1 11 Norte 18 Norte 0 -- -- 84
2019-11-22 15:00:00 18.8 6 Noroeste 19 Norte 0 -- -- 79
2019-11-22 14:00:00 18.9 10 Norte 23 Norte 0 -- -- 77
2019-11-22 13:00:00 18.7 13 Norte 22 Noroeste 0 -- -- 78
2019-11-22 12:00:00 18.8 16 Norte 28 Norte 0 -- -- 76
2019-11-22 11:00:00 17.8 6 Norte 18 Norte 0 -- -- 77
2019-11-22 10:00:00 17.3 8 Nordeste 29 Nordeste 0 -- -- 59
2019-11-22 09:00:00 14.2 18 Nordeste 37 Este 0 -- -- 88
2019-11-22 08:00:00 13.1 15 Nordeste 33 Nordeste 0 -- -- 92
2019-11-22 07:00:00 13.8 18 Nordeste 39 Norte 0 -- -- 91
2019-11-22 06:00:00 14.1 12 Nordeste 24 Nordeste 0 -- -- 93
2019-11-22 05:00:00 13.9 12 Nordeste 32 Nordeste 0 -- -- 92
2019-11-22 04:00:00 13.6 21 Nordeste 33 Nordeste 0 -- -- 92
2019-11-22 03:00:00 13.6 17 Nordeste 30 Nordeste 0 -- -- 93
2019-11-22 02:00:00 13.8 19 Nordeste 29 Nordeste 0 -- -- 95
2019-11-22 01:00:00 14.6 17 Nordeste 30 Nordeste 0.2 -- -- 96
2019-11-22 00:00:00 14.9 15 Nordeste 27 Nordeste 0.2 -- -- 96
2019-11-21 23:00:00 15.2 14 Nordeste 31 Norte 1.2 -- -- 96
2019-11-21 22:00:00 15.8 16 Nordeste 28 Nordeste 1 -- -- 96
2019-11-21 21:00:00 16 12 Norte 19 Norte 0.8 -- -- 95
2019-11-21 20:00:00 15.8 8 Nordeste 12 Nordeste 0.6 -- -- 94
2019-11-21 19:00:00 15.4 3 Nordeste 11 Nordeste 0 -- -- 94
2019-11-21 18:00:00 15.9 2 Norte 6 Este 0.4 -- -- 95
2019-11-21 17:00:00 16 4 Sudoeste 8 Oeste 0.8 -- -- 94
2019-11-21 16:00:00 16.3 0 Calma 9 Oeste 0.6 -- -- 92
2019-11-21 15:00:00 16.2 3 Sudeste 16 Sudoeste 0.2 -- -- 93
2019-11-21 14:00:00 16.1 11 Sur 19 Sur 0 -- -- 89
2019-11-21 13:00:00 16.8 7 Sur 16 Sudeste 0 -- -- 83
2019-11-21 12:00:00 16.4 6 Sudoeste 14 Sudeste 0 -- -- 82
2019-11-21 11:00:00 15.7 5 Sudoeste 16 Norte 0 -- -- 84
2019-11-21 10:00:00 15.3 2 Sur 12 Este 0 -- -- 83
2019-11-21 09:00:00 14 0 Calma 6 Noroeste 0 -- -- 85
2019-11-21 08:00:00 13.3 0 Calma 8 Este 0 -- -- 89
2019-11-21 07:00:00 -- -- -- -- -- -- -- -- --
2019-11-21 06:00:00 -- -- -- -- -- -- -- -- --
2019-11-21 05:00:00 -- -- -- -- -- -- -- -- --
2019-11-21 04:00:00 -- -- -- -- -- -- -- -- --
2019-11-21 03:00:00 -- -- -- -- -- -- -- -- --
2019-11-21 02:00:00 -- -- -- -- -- -- -- -- --
2019-11-21 01:00:00 -- -- -- -- -- -- -- -- --
2019-11-21 00:00:00 -- -- -- -- -- -- -- -- --
2019-11-20 23:00:00 -- -- -- -- -- -- -- -- --
2019-11-20 22:00:00 -- -- -- -- -- -- -- -- --
2019-11-20 21:00:00 -- -- -- -- -- -- -- -- --
2019-11-20 20:00:00 -- -- -- -- -- -- -- -- --
2019-11-20 19:00:00 -- -- -- -- -- -- -- -- --
2019-11-20 18:00:00 16.3 10 Nordeste 22 Nordeste 0 -- -- 70
2019-11-20 17:00:00 16.7 11 Nordeste 26 Norte 0 -- -- 77
2019-11-20 16:00:00 17.1 13 Nordeste 29 Nordeste 0 -- -- 74
2019-11-20 15:00:00 15 16 Nordeste 27 Nordeste 0.4 -- -- 91
2019-11-20 14:00:00 16.6 13 Norte 22 Norte 0 -- -- 83
2019-11-20 13:00:00 16.7 10 Nordeste 20 Norte 0.8 -- -- 92
2019-11-20 12:00:00 15.5 6 Noroeste 14 Oeste 2.2 -- -- 92
2019-11-20 11:00:00 16.1 5 Noroeste 9 Norte 0 -- -- 87
2019-11-20 10:00:00 15.7 3 Noroeste 8 Norte 0 -- -- 91
2019-11-20 09:00:00 14.6 2 Sudeste 8 Norte 0.2 -- -- 92
2019-11-20 08:00:00 14.6 6 Nordeste 15 Este 0 -- -- 85
2019-11-20 07:00:00 13.3 8 Nordeste 17 Nordeste 0 -- -- 85
2019-11-20 06:00:00 12.8 9 Nordeste 21 Nordeste 0 -- -- 81
2019-11-20 05:00:00 12.5 13 Nordeste 19 Este 0 -- -- 70
2019-11-20 04:00:00 12.3 9 Nordeste 14 Nordeste 0 -- -- 86
2019-11-20 03:00:00 12.5 8 Nordeste 18 Nordeste 0 -- -- 88
2019-11-20 02:00:00 12.5 9 Nordeste 17 Nordeste 0 -- -- 85
2019-11-20 01:00:00 13 10 Nordeste 19 Nordeste 0 -- -- 81
2019-11-20 00:00:00 12.8 9 Nordeste 23 Nordeste 0 -- -- 80
2019-11-19 23:00:00 13.3 14 Nordeste 23 Nordeste 0 -- -- 77
2019-11-19 22:00:00 13.2 10 Nordeste 25 Nordeste 0 -- -- 80
2019-11-19 21:00:00 13 9 Nordeste 22 Nordeste 0 -- -- 83
2019-11-19 20:00:00 13.4 10 Nordeste 24 Nordeste 0 -- -- 81
2019-11-19 19:00:00 13.8 12 Nordeste 27 Norte 0 -- -- 89
2019-11-19 18:00:00 14.9 20 Norte 29 Norte 0 -- -- 85
2019-11-19 17:00:00 16.2 20 Norte 31 Norte 0 -- -- 76
2019-11-19 16:00:00 16.7 20 Norte 32 Norte 0 -- -- 71
2019-11-19 15:00:00 17.4 17 Norte 30 Norte 0 -- -- 70
2019-11-19 14:00:00 16.8 18 Norte 32 Norte 0 -- -- 73
2019-11-19 13:00:00 16.7 19 Norte 30 Norte 0 -- -- 72
2019-11-19 12:00:00 16.5 15 Norte 32 Norte 0 -- -- 69
2019-11-19 11:00:00 16 14 Norte 26 Norte 0 -- -- 67
2019-11-19 10:00:00 14.9 14 Nordeste 26 Nordeste 0 -- -- 75
2019-11-19 09:00:00 13.4 11 Nordeste 21 Nordeste 0 -- -- 73
2019-11-19 08:00:00 12.4 14 Nordeste 22 Nordeste 0 -- -- 76
2019-11-19 07:00:00 12 12 Nordeste 19 Nordeste 0 -- -- 81
2019-11-19 06:00:00 11.9 10 Nordeste 16 Nordeste 0 -- -- 75
2019-11-19 05:00:00 11.9 7 Este 9 Este 0 -- -- 74
2019-11-19 04:00:00 12.5 7 Este 9 Este 0 -- -- 73
2019-11-19 03:00:00 12.6 5 Este 8 Sudeste 0 -- -- 75
2019-11-19 02:00:00 11.8 6 Sudeste 12 Sudeste 0 -- -- 76
2019-11-19 01:00:00 12.5 9 Sudeste 13 Sudeste 0 -- -- 74
2019-11-19 00:00:00 13.2 6 Este 18 Este 0 -- -- 75
2019-11-18 23:00:00 12.5 8 Este 21 Sudeste 0 -- -- 77
2019-11-18 22:00:00 12.6 6 Este 10 Sudeste 0 -- -- 84
2019-11-18 21:00:00 13.1 5 Sudeste 10 Sudeste 0 -- -- 83
2019-11-18 20:00:00 14.1 3 Sur 9 Sur 0 -- -- 87
2019-11-18 19:00:00 14.6 2 Sudoeste 15 Sudoeste 0 -- -- 83
2019-11-18 18:00:00 16.3 8 Sudoeste 14 Sudoeste 0 -- -- 78
2019-11-18 17:00:00 17 10 Sur 16 Sudoeste 0 -- -- 71
2019-11-18 16:00:00 17.3 7 Sudoeste 17 Noroeste 0 -- -- 69
2019-11-18 15:00:00 17.3 9 Norte 18 Sudoeste 0 -- -- 66
2019-11-18 14:00:00 16.8 10 Sur 16 Sudoeste 0 -- -- 68
2019-11-18 13:00:00 16.4 6 Sudoeste 15 Sudoeste 0 -- -- 71
2019-11-18 12:00:00 15.4 3 Norte 14 Noroeste 0 -- -- 73
2019-11-18 11:00:00 16 8 Oeste 14 Sur 0 -- -- 71
2019-11-18 10:00:00 15.5 7 Sur 12 Sudoeste 0 -- -- 69
2019-11-18 09:00:00 13.7 4 Sudeste 12 Sudeste 0 -- -- 80
2019-11-18 08:00:00 11.2 5 Sudeste 11 Sudeste 0 -- -- 84
2019-11-18 07:00:00 10.8 8 Sudeste 10 Sudeste 0 -- -- 83
2019-11-18 06:00:00 11.3 3 Sudeste 12 Sudeste 0 -- -- 84
2019-11-18 05:00:00 11.5 8 Sudeste 14 Sudeste 0 -- -- 82
2019-11-18 04:00:00 11.3 6 Sudeste 12 Sudeste 0 -- -- 84
2019-11-18 03:00:00 11.7 6 Sudeste 13 Sudeste 0 -- -- 82
2019-11-18 02:00:00 11.5 5 Este 9 Sudeste 0 -- -- 83
2019-11-18 01:00:00 11.9 8 Sudeste 12 Sudeste 0 -- -- 83
2019-11-18 00:00:00 12.3 7 Sudeste 11 Sudeste 0 -- -- 81
2019-11-17 23:00:00 13.1 5 Sudeste 10 Sudeste 0 -- -- 83
2019-11-17 22:00:00 13.6 2 Este 8 Sur 0 -- -- 82
2019-11-17 21:00:00 14.2 5 Sur 13 Nordeste 0 -- -- 83
2019-11-17 20:00:00 14.4 7 Nordeste 15 Nordeste 0 -- -- 72
2019-11-17 19:00:00 15.1 4 Sur 15 Sur 0 -- -- 81
2019-11-17 18:00:00 17 9 Sudoeste 21 Sur 0 -- -- 67
2019-11-17 17:00:00 18.1 13 Sudoeste 21 Sur 0 -- -- 61
2019-11-17 16:00:00 18.3 8 Sudoeste 19 Oeste 0 -- -- 59
2019-11-17 15:00:00 18.6 9 Oeste 19 Sur 0 -- -- 57
2019-11-17 14:00:00 16.3 4 Oeste 17 Sur 0 -- -- 73
2019-11-17 13:00:00 16.9 10 Sudoeste 16 Sudoeste 0 -- -- 70
2019-11-17 12:00:00 16.5 8 Oeste 19 Sudoeste 0 -- -- 70
2019-11-17 11:00:00 16.3 8 Sur 18 Sur 0 -- -- 71
2019-11-17 10:00:00 15.6 5 Sudoeste 10 Sur 0 -- -- 72
2019-11-17 09:00:00 13.8 4 Sur 10 Sur 0 -- -- 78
2019-11-17 08:00:00 12 2 Este 9 Sudeste 0 -- -- 85
2019-11-17 07:00:00 11.2 5 Sudeste 11 Sudeste 0 -- -- 82
2019-11-17 06:00:00 11.8 7 Sudeste 13 Sudeste 0 -- -- 80
2019-11-17 05:00:00 11.9 9 Sudeste 14 Sudeste 0 -- -- 80
2019-11-17 04:00:00 12 7 Norte 12 Norte 0 -- -- 85
2019-11-17 03:00:00 12 7 Nordeste 10 Este 0 -- -- 81
2019-11-17 02:00:00 12.2 5 Sur 13 Sudeste 0 -- -- 82
2019-11-17 01:00:00 12.1 6 Sudeste 9 Sudeste 0 -- -- 82
2019-11-17 00:00:00 12.5 4 Sudeste 14 Sudeste 0 -- -- 81
2019-11-16 23:00:00 12.5 6 Sudeste 15 Sur 0 -- -- 79
2019-11-16 22:00:00 13 7 Sudeste 15 Sudeste 0 -- -- 76
2019-11-16 21:00:00 13.3 4 Sudeste 14 Sudeste 0 -- -- 75
2019-11-16 20:00:00 13.8 3 Sur 15 Oeste 0 -- -- 73
2019-11-16 19:00:00 14.9 3 Oeste 14 Sur 0 -- -- 71
2019-11-16 18:00:00 16.8 10 Sudoeste 17 Sudoeste 0 -- -- 64
2019-11-16 17:00:00 18.1 10 Sur 38 Este 0 -- -- 59
2019-11-16 16:00:00 18.2 6 Oeste 18 Sudoeste 0 -- -- 59
2019-11-16 15:00:00 19 12 Sudoeste 42 Este 0 -- -- 56
2019-11-16 14:00:00 18.7 9 Oeste 39 Este 0 -- -- 56
2019-11-16 13:00:00 18.8 14 Este 46 Nordeste 0 -- -- 49
2019-11-16 12:00:00 17.8 11 Sur 37 Norte 0 -- -- 63
2019-11-16 11:00:00 16.3 10 Sudeste 56 Nordeste 0 -- -- 68
2019-11-16 10:00:00 16.2 7 Sudeste 48 Sudeste 0 -- -- 68
2019-11-16 09:00:00 14.9 8 Este 45 Este 0 -- -- 65
2019-11-16 08:00:00 13.4 18 Nordeste 40 Nordeste 0 -- -- 66
2019-11-16 07:00:00 12.9 17 Nordeste 37 Nordeste 0 -- -- 74
2019-11-16 06:00:00 12.7 12 Nordeste 31 Nordeste 0 -- -- 77
2019-11-16 05:00:00 12.8 11 Este 38 Este 0 -- -- 76
2019-11-16 04:00:00 12.8 10 Nordeste 24 Este 0 -- -- 76
2019-11-16 03:00:00 12.6 5 Nordeste 24 Este 0 -- -- 76
2019-11-16 02:00:00 12.6 9 Nordeste 22 Nordeste 0 -- -- 75
2019-11-16 01:00:00 13.1 5 Este 23 Este 0 -- -- 74
2019-11-16 00:00:00 12.9 8 Nordeste 19 Nordeste 0 -- -- 73
2019-11-15 23:00:00 13.4 8 Nordeste 28 Nordeste 0 -- -- 74
2019-11-15 22:00:00 14.2 9 Este 33 Nordeste 0 -- -- 64
2019-11-15 21:00:00 14 14 Nordeste 45 Este 0 -- -- 58
2019-11-15 20:00:00 13.2 20 Nordeste 42 Nordeste 0 -- -- 70
2019-11-15 19:00:00 13.6 26 Nordeste 54 Nordeste 0 -- -- 67
2019-11-15 18:00:00 16.1 18 Nordeste 55 Nordeste 0 -- -- 61
2019-11-15 17:00:00 16 24 Nordeste 50 Nordeste 0 -- -- 67
2019-11-15 16:00:00 15.9 24 Nordeste 57 Nordeste 0 -- -- 69
2019-11-15 15:00:00 16.5 18 Nordeste 45 Nordeste 0 -- -- 78
2019-11-15 14:00:00 16.5 23 Nordeste 47 Norte 0 -- -- 75
2019-11-15 13:00:00 19 20 Nordeste 49 Este 0 -- -- 54
2019-11-15 12:00:00 17.4 22 Nordeste 45 Nordeste 0 -- -- 59
2019-11-15 11:00:00 16.8 23 Nordeste 50 Nordeste 0 -- -- 58
2019-11-15 10:00:00 17 10 Este 40 Nordeste 0 -- -- 62
2019-11-15 09:00:00 15.2 20 Nordeste 44 Nordeste 0 -- -- 67
2019-11-15 08:00:00 13.9 21 Nordeste 39 Nordeste 0 -- -- 78
2019-11-15 07:00:00 13.9 18 Nordeste 35 Nordeste 0 -- -- 77
2019-11-15 06:00:00 15.2 19 Este 43 Nordeste 0 -- -- 61
2019-11-15 05:00:00 14.5 17 Este 45 Nordeste 0 -- -- 61
2019-11-15 04:00:00 14.9 10 Este 42 Este 0 -- -- 70
2019-11-15 03:00:00 14.7 12 Este 37 Nordeste 0 -- -- 62
2019-11-15 02:00:00 14.6 14 Este 36 Este 0 -- -- 69
2019-11-15 01:00:00 15.1 22 Este 55 Nordeste 0 -- -- 66
2019-11-15 00:00:00 14.6 9 Este 24 Este 0 -- -- 76